sensor_id;sensor_type;location;lat;lon;timestamp;P1;durP1;ratioP1;P2;durP2;ratioP2
10212;SDS011;5150;51.400;6.692;2022-12-05T00:00:39;44.60;;;33.47;;
10212;SDS011;5150;51.400;6.692;2022-12-05T00:04:03;48.37;;;33.13;;
10212;SDS011;5150;51.400;6.692;2022-12-05T00:07:27;48.90;;;33.53;;
10212;SDS011;5150;51.400;6.692;2022-12-05T00:10:52;51.90;;;35.80;;
10212;SDS011;5150;51.400;6.692;2022-12-05T00:14:15;50.70;;;34.60;;
10212;SDS011;5150;51.400;6.692;2022-12-05T00:17:38;54.03;;;35.07;;
10212;SDS011;5150;51.400;6.692;2022-12-05T00:21:02;49.70;;;34.47;;
10212;SDS011;5150;51.400;6.692;2022-12-05T00:24:25;46.10;;;34.10;;
10212;SDS011;5150;51.400;6.692;2022-12-05T00:27:49;47.43;;;35.00;;
10212;SDS011;5150;51.400;6.692;2022-12-05T00:31:13;47.23;;;32.87;;
10212;SDS011;5150;51.400;6.692;2022-12-05T00:34:38;48.67;;;34.00;;
10212;SDS011;5150;51.400;6.692;2022-12-05T00:38:01;48.43;;;34.73;;
10212;SDS011;5150;51.400;6.692;2022-12-05T00:41:25;40.37;;;31.40;;
10212;SDS011;5150;51.400;6.692;2022-12-05T00:44:50;52.80;;;35.77;;
10212;SDS011;5150;51.400;6.692;2022-12-05T00:48:13;43.67;;;31.70;;
10212;SDS011;5150;51.400;6.692;2022-12-05T00:51:37;45.33;;;32.10;;
10212;SDS011;5150;51.400;6.692;2022-12-05T00:55:01;45.23;;;34.80;;
10212;SDS011;5150;51.400;6.692;2022-12-05T00:58:24;50.53;;;36.60;;
10212;SDS011;5150;51.400;6.692;2022-12-05T01:01:49;38.37;;;30.93;;
10212;SDS011;5150;51.400;6.692;2022-12-05T01:05:13;48.47;;;34.33;;
10212;SDS011;5150;51.400;6.692;2022-12-05T01:08:36;45.93;;;32.97;;
10212;SDS011;5150;51.400;6.692;2022-12-05T01:11:59;42.37;;;31.00;;
10212;SDS011;5150;51.400;6.692;2022-12-05T01:15:23;44.07;;;32.87;;
10212;SDS011;5150;51.400;6.692;2022-12-05T01:18:47;46.23;;;31.60;;
10212;SDS011;5150;51.400;6.692;2022-12-05T01:22:10;46.43;;;33.90;;
10212;SDS011;5150;51.400;6.692;2022-12-05T01:25:33;41.00;;;32.17;;
10212;SDS011;5150;51.400;6.692;2022-12-05T01:28:56;43.57;;;33.77;;
10212;SDS011;5150;51.400;6.692;2022-12-05T01:32:19;49.37;;;33.60;;
10212;SDS011;5150;51.400;6.692;2022-12-05T01:35:44;45.90;;;32.63;;
10212;SDS011;5150;51.400;6.692;2022-12-05T01:39:07;44.23;;;34.77;;
10212;SDS011;5150;51.400;6.692;2022-12-05T01:42:31;46.53;;;33.50;;
10212;SDS011;5150;51.400;6.692;2022-12-05T01:45:55;44.07;;;33.27;;
10212;SDS011;5150;51.400;6.692;2022-12-05T01:49:18;42.00;;;31.80;;
10212;SDS011;5150;51.400;6.692;2022-12-05T01:52:46;41.73;;;32.03;;
10212;SDS011;5150;51.400;6.692;2022-12-05T01:56:09;42.17;;;31.93;;
10212;SDS011;5150;51.400;6.692;2022-12-05T01:59:33;42.57;;;30.93;;
10212;SDS011;5150;51.400;6.692;2022-12-05T02:03:01;44.53;;;32.63;;
10212;SDS011;5150;51.400;6.692;2022-12-05T02:06:27;45.53;;;34.53;;
10212;SDS011;5150;51.400;6.692;2022-12-05T02:09:52;40.60;;;31.33;;
10212;SDS011;5150;51.400;6.692;2022-12-05T02:13:26;37.30;;;29.80;;
10212;SDS011;5150;51.400;6.692;2022-12-05T02:17:03;45.70;;;35.10;;
10212;SDS011;5150;51.400;6.692;2022-12-05T02:20:35;43.53;;;31.17;;
10212;SDS011;5150;51.400;6.692;2022-12-05T02:28:08;38.43;;;31.00;;
10212;SDS011;5150;51.400;6.692;2022-12-05T02:31:51;44.93;;;33.10;;
10212;SDS011;5150;51.400;6.692;2022-12-05T02:35:25;45.83;;;32.50;;
10212;SDS011;5150;51.400;6.692;2022-12-05T02:38:57;44.87;;;33.67;;
10212;SDS011;5150;51.400;6.692;2022-12-05T02:42:25;43.20;;;30.53;;
10212;SDS011;5150;51.400;6.692;2022-12-05T02:45:55;43.43;;;33.30;;
10212;SDS011;5150;51.400;6.692;2022-12-05T02:49:23;43.73;;;33.83;;
10212;SDS011;5150;51.400;6.692;2022-12-05T02:52:51;48.47;;;33.77;;
10212;SDS011;5150;51.400;6.692;2022-12-05T02:56:17;47.00;;;32.67;;
10212;SDS011;5150;51.400;6.692;2022-12-05T02:59:41;44.10;;;31.30;;
10212;SDS011;5150;51.400;6.692;2022-12-05T03:03:05;47.00;;;33.87;;
10212;SDS011;5150;51.400;6.692;2022-12-05T03:06:37;47.40;;;33.27;;
10212;SDS011;5150;51.400;6.692;2022-12-05T03:10:03;45.77;;;32.00;;
10212;SDS011;5150;51.400;6.692;2022-12-05T03:13:31;45.27;;;33.27;;
10212;SDS011;5150;51.400;6.692;2022-12-05T03:16:59;48.97;;;33.37;;
10212;SDS011;5150;51.400;6.692;2022-12-05T03:20:26;43.33;;;31.67;;
10212;SDS011;5150;51.400;6.692;2022-12-05T03:23:55;45.63;;;34.33;;
10212;SDS011;5150;51.400;6.692;2022-12-05T03:27:24;46.70;;;32.47;;
10212;SDS011;5150;51.400;6.692;2022-12-05T03:30:52;47.67;;;35.73;;
10212;SDS011;5150;51.400;6.692;2022-12-05T03:34:19;44.90;;;33.80;;
10212;SDS011;5150;51.400;6.692;2022-12-05T03:37:46;43.83;;;32.73;;
10212;SDS011;5150;51.400;6.692;2022-12-05T03:41:18;42.43;;;29.73;;
10212;SDS011;5150;51.400;6.692;2022-12-05T03:44:48;47.97;;;35.43;;
10212;SDS011;5150;51.400;6.692;2022-12-05T03:48:14;48.90;;;34.20;;
10212;SDS011;5150;51.400;6.692;2022-12-05T03:51:44;48.43;;;33.20;;
10212;SDS011;5150;51.400;6.692;2022-12-05T03:55:14;49.90;;;32.20;;
10212;SDS011;5150;51.400;6.692;2022-12-05T03:58:40;44.43;;;31.90;;
10212;SDS011;5150;51.400;6.692;2022-12-05T04:02:10;50.17;;;34.97;;
10212;SDS011;5150;51.400;6.692;2022-12-05T04:05:37;53.93;;;34.73;;
10212;SDS011;5150;51.400;6.692;2022-12-05T04:09:04;48.30;;;35.37;;
10212;SDS011;5150;51.400;6.692;2022-12-05T04:12:37;44.37;;;32.77;;
10212;SDS011;5150;51.400;6.692;2022-12-05T04:16:08;50.47;;;32.20;;
10212;SDS011;5150;51.400;6.692;2022-12-05T04:19:52;47.03;;;34.50;;
10212;SDS011;5150;51.400;6.692;2022-12-05T04:23:34;48.50;;;34.40;;
10212;SDS011;5150;51.400;6.692;2022-12-05T04:27:01;49.80;;;33.83;;
10212;SDS011;5150;51.400;6.692;2022-12-05T04:30:32;49.30;;;33.23;;
10212;SDS011;5150;51.400;6.692;2022-12-05T04:34:00;52.83;;;32.07;;
10212;SDS011;5150;51.400;6.692;2022-12-05T04:37:26;46.13;;;31.67;;
10212;SDS011;5150;51.400;6.692;2022-12-05T04:40:55;49.77;;;34.23;;
10212;SDS011;5150;51.400;6.692;2022-12-05T04:44:22;47.80;;;31.20;;
10212;SDS011;5150;51.400;6.692;2022-12-05T04:47:49;46.40;;;32.97;;
10212;SDS011;5150;51.400;6.692;2022-12-05T04:51:19;42.57;;;31.10;;
10212;SDS011;5150;51.400;6.692;2022-12-05T04:54:47;42.80;;;31.30;;
10212;SDS011;5150;51.400;6.692;2022-12-05T04:58:14;49.00;;;31.67;;
10212;SDS011;5150;51.400;6.692;2022-12-05T05:01:42;42.13;;;32.03;;
10212;SDS011;5150;51.400;6.692;2022-12-05T05:05:10;39.50;;;28.93;;
10212;SDS011;5150;51.400;6.692;2022-12-05T05:08:44;45.73;;;31.10;;
10212;SDS011;5150;51.400;6.692;2022-12-05T05:12:09;47.00;;;33.70;;
10212;SDS011;5150;51.400;6.692;2022-12-05T05:15:38;41.60;;;29.93;;
10212;SDS011;5150;51.400;6.692;2022-12-05T05:19:02;43.03;;;31.60;;
10212;SDS011;5150;51.400;6.692;2022-12-05T05:22:25;42.30;;;30.83;;
10212;SDS011;5150;51.400;6.692;2022-12-05T05:25:52;57.17;;;32.83;;
10212;SDS011;5150;51.400;6.692;2022-12-05T05:29:15;43.93;;;32.57;;
10212;SDS011;5150;51.400;6.692;2022-12-05T05:32:39;43.63;;;29.80;;
10212;SDS011;5150;51.400;6.692;2022-12-05T05:36:03;47.93;;;32.27;;
10212;SDS011;5150;51.400;6.692;2022-12-05T05:39:26;52.23;;;33.90;;
10212;SDS011;5150;51.400;6.692;2022-12-05T05:42:51;43.43;;;31.70;;
10212;SDS011;5150;51.400;6.692;2022-12-05T05:46:14;50.37;;;32.63;;
10212;SDS011;5150;51.400;6.692;2022-12-05T05:49:38;45.30;;;32.20;;
10212;SDS011;5150;51.400;6.692;2022-12-05T05:53:01;46.73;;;31.70;;
10212;SDS011;5150;51.400;6.692;2022-12-05T05:56:24;49.73;;;32.63;;
10212;SDS011;5150;51.400;6.692;2022-12-05T05:59:50;45.37;;;31.93;;
10212;SDS011;5150;51.400;6.692;2022-12-05T06:03:13;46.43;;;31.80;;
10212;SDS011;5150;51.400;6.692;2022-12-05T06:06:36;44.03;;;31.63;;
10212;SDS011;5150;51.400;6.692;2022-12-05T06:09:59;41.83;;;31.00;;
10212;SDS011;5150;51.400;6.692;2022-12-05T06:13:23;43.43;;;32.77;;
10212;SDS011;5150;51.400;6.692;2022-12-05T06:16:47;47.53;;;32.73;;
10212;SDS011;5150;51.400;6.692;2022-12-05T06:20:10;49.87;;;32.57;;
10212;SDS011;5150;51.400;6.692;2022-12-05T06:23:34;48.47;;;31.37;;
10212;SDS011;5150;51.400;6.692;2022-12-05T06:26:58;47.63;;;32.47;;
10212;SDS011;5150;51.400;6.692;2022-12-05T06:30:21;42.80;;;31.73;;
10212;SDS011;5150;51.400;6.692;2022-12-05T06:33:46;47.27;;;31.77;;
10212;SDS011;5150;51.400;6.692;2022-12-05T06:37:09;44.93;;;32.83;;
10212;SDS011;5150;51.400;6.692;2022-12-05T06:40:32;46.50;;;31.13;;
10212;SDS011;5150;51.400;6.692;2022-12-05T06:43:57;46.30;;;30.87;;
10212;SDS011;5150;51.400;6.692;2022-12-05T06:47:22;37.20;;;28.43;;
10212;SDS011;5150;51.400;6.692;2022-12-05T06:50:51;46.40;;;30.03;;
10212;SDS011;5150;51.400;6.692;2022-12-05T06:54:14;41.57;;;28.53;;
10212;SDS011;5150;51.400;6.692;2022-12-05T06:57:37;35.57;;;27.83;;
10212;SDS011;5150;51.400;6.692;2022-12-05T07:01:01;41.93;;;30.57;;
10212;SDS011;5150;51.400;6.692;2022-12-05T07:04:42;44.83;;;28.30;;
10212;SDS011;5150;51.400;6.692;2022-12-05T07:08:07;45.93;;;31.10;;
10212;SDS011;5150;51.400;6.692;2022-12-05T07:11:33;40.60;;;29.37;;
10212;SDS011;5150;51.400;6.692;2022-12-05T07:14:56;42.83;;;31.17;;
10212;SDS011;5150;51.400;6.692;2022-12-05T07:18:20;41.80;;;29.53;;
10212;SDS011;5150;51.400;6.692;2022-12-05T07:21:44;42.90;;;30.17;;
10212;SDS011;5150;51.400;6.692;2022-12-05T07:25:09;35.23;;;28.63;;
10212;SDS011;5150;51.400;6.692;2022-12-05T07:28:32;34.73;;;25.43;;
10212;SDS011;5150;51.400;6.692;2022-12-05T07:31:56;36.87;;;27.53;;
10212;SDS011;5150;51.400;6.692;2022-12-05T07:35:19;39.03;;;28.63;;
10212;SDS011;5150;51.400;6.692;2022-12-05T07:38:42;40.47;;;29.77;;
10212;SDS011;5150;51.400;6.692;2022-12-05T07:42:07;37.73;;;27.33;;
10212;SDS011;5150;51.400;6.692;2022-12-05T07:45:32;36.87;;;28.50;;
10212;SDS011;5150;51.400;6.692;2022-12-05T07:48:55;36.73;;;28.57;;
10212;SDS011;5150;51.400;6.692;2022-12-05T07:52:19;38.67;;;29.27;;
10212;SDS011;5150;51.400;6.692;2022-12-05T07:55:42;35.63;;;26.80;;
10212;SDS011;5150;51.400;6.692;2022-12-05T07:59:06;37.97;;;28.03;;
10212;SDS011;5150;51.400;6.692;2022-12-05T08:02:29;42.77;;;28.10;;
10212;SDS011;5150;51.400;6.692;2022-12-05T08:05:52;35.80;;;25.00;;
10212;SDS011;5150;51.400;6.692;2022-12-05T08:09:15;38.63;;;27.70;;
10212;SDS011;5150;51.400;6.692;2022-12-05T08:12:39;39.13;;;27.13;;
10212;SDS011;5150;51.400;6.692;2022-12-05T08:16:04;33.27;;;26.63;;
10212;SDS011;5150;51.400;6.692;2022-12-05T08:19:29;31.93;;;26.10;;
10212;SDS011;5150;51.400;6.692;2022-12-05T08:22:52;31.77;;;26.30;;
10212;SDS011;5150;51.400;6.692;2022-12-05T08:26:16;37.83;;;26.87;;
10212;SDS011;5150;51.400;6.692;2022-12-05T08:29:41;35.43;;;26.57;;
10212;SDS011;5150;51.400;6.692;2022-12-05T08:33:06;35.20;;;26.20;;
10212;SDS011;5150;51.400;6.692;2022-12-05T08:36:30;31.40;;;25.43;;
10212;SDS011;5150;51.400;6.692;2022-12-05T08:39:53;28.33;;;23.33;;
10212;SDS011;5150;51.400;6.692;2022-12-05T08:43:17;35.80;;;25.20;;
10212;SDS011;5150;51.400;6.692;2022-12-05T08:46:41;31.80;;;24.33;;
10212;SDS011;5150;51.400;6.692;2022-12-05T08:50:07;30.33;;;24.40;;
10212;SDS011;5150;51.400;6.692;2022-12-05T08:53:30;28.63;;;23.33;;
10212;SDS011;5150;51.400;6.692;2022-12-05T08:56:54;31.33;;;24.13;;
10212;SDS011;5150;51.400;6.692;2022-12-05T09:00:17;28.40;;;22.50;;
10212;SDS011;5150;51.400;6.692;2022-12-05T09:03:41;26.60;;;22.53;;
10212;SDS011;5150;51.400;6.692;2022-12-05T09:07:10;27.30;;;23.13;;
10212;SDS011;5150;51.400;6.692;2022-12-05T09:10:33;31.13;;;23.93;;
10212;SDS011;5150;51.400;6.692;2022-12-05T09:13:57;26.57;;;23.23;;
10212;SDS011;5150;51.400;6.692;2022-12-05T09:17:20;28.13;;;24.10;;
10212;SDS011;5150;51.400;6.692;2022-12-05T09:20:45;27.37;;;22.70;;
10212;SDS011;5150;51.400;6.692;2022-12-05T09:24:10;26.13;;;22.50;;
10212;SDS011;5150;51.400;6.692;2022-12-05T09:27:34;27.63;;;23.03;;
10212;SDS011;5150;51.400;6.692;2022-12-05T09:30:58;26.97;;;22.07;;
10212;SDS011;5150;51.400;6.692;2022-12-05T09:34:26;26.17;;;21.77;;
10212;SDS011;5150;51.400;6.692;2022-12-05T09:37:54;28.43;;;23.00;;
10212;SDS011;5150;51.400;6.692;2022-12-05T09:41:29;23.40;;;20.93;;
10212;SDS011;5150;51.400;6.692;2022-12-05T09:45:29;21.80;;;18.83;;
10212;SDS011;5150;51.400;6.692;2022-12-05T09:48:59;21.23;;;19.03;;
10212;SDS011;5150;51.400;6.692;2022-12-05T09:52:24;20.03;;;17.83;;
10212;SDS011;5150;51.400;6.692;2022-12-05T09:55:50;18.07;;;16.17;;
10212;SDS011;5150;51.400;6.692;2022-12-05T09:59:17;18.67;;;16.87;;
10212;SDS011;5150;51.400;6.692;2022-12-05T10:02:44;20.10;;;17.20;;
10212;SDS011;5150;51.400;6.692;2022-12-05T10:06:17;20.43;;;16.87;;
10212;SDS011;5150;51.400;6.692;2022-12-05T10:09:52;20.30;;;18.00;;
10212;SDS011;5150;51.400;6.692;2022-12-05T10:13:25;19.80;;;17.60;;
10212;SDS011;5150;51.400;6.692;2022-12-05T10:17:06;18.53;;;16.63;;
10212;SDS011;5150;51.400;6.692;2022-12-05T10:21:08;18.57;;;16.60;;
10212;SDS011;5150;51.400;6.692;2022-12-05T10:24:59;21.53;;;17.53;;
10212;SDS011;5150;51.400;6.692;2022-12-05T10:28:27;21.33;;;19.03;;
10212;SDS011;5150;51.400;6.692;2022-12-05T10:32:05;22.13;;;18.17;;
10212;SDS011;5150;51.400;6.692;2022-12-05T10:35:36;21.67;;;19.37;;
10212;SDS011;5150;51.400;6.692;2022-12-05T10:39:01;26.00;;;22.50;;
10212;SDS011;5150;51.400;6.692;2022-12-05T10:42:33;25.93;;;21.40;;
10212;SDS011;5150;51.400;6.692;2022-12-05T10:45:57;24.43;;;20.50;;
10212;SDS011;5150;51.400;6.692;2022-12-05T10:49:30;26.37;;;21.13;;
10212;SDS011;5150;51.400;6.692;2022-12-05T10:52:55;24.83;;;20.57;;
10212;SDS011;5150;51.400;6.692;2022-12-05T10:56:38;23.27;;;20.00;;
10212;SDS011;5150;51.400;6.692;2022-12-05T11:00:10;25.47;;;21.57;;
10212;SDS011;5150;51.400;6.692;2022-12-05T11:03:37;25.20;;;20.60;;
10212;SDS011;5150;51.400;6.692;2022-12-05T11:07:22;23.33;;;20.70;;
10212;SDS011;5150;51.400;6.692;2022-12-05T11:10:59;22.60;;;20.13;;
10212;SDS011;5150;51.400;6.692;2022-12-05T11:14:39;25.03;;;21.83;;
10212;SDS011;5150;51.400;6.692;2022-12-05T11:18:21;22.63;;;20.33;;
10212;SDS011;5150;51.400;6.692;2022-12-05T11:22:02;23.70;;;20.23;;
10212;SDS011;5150;51.400;6.692;2022-12-05T11:25:54;22.37;;;20.00;;
10212;SDS011;5150;51.400;6.692;2022-12-05T11:29:52;24.57;;;22.07;;
10212;SDS011;5150;51.400;6.692;2022-12-05T11:33:44;22.57;;;20.27;;
10212;SDS011;5150;51.400;6.692;2022-12-05T11:37:42;25.67;;;21.23;;
10212;SDS011;5150;51.400;6.692;2022-12-05T11:42:09;24.20;;;21.60;;
10212;SDS011;5150;51.400;6.692;2022-12-05T11:46:01;25.40;;;22.70;;
10212;SDS011;5150;51.400;6.692;2022-12-05T11:49:54;27.73;;;22.43;;
10212;SDS011;5150;51.400;6.692;2022-12-05T11:53:59;27.97;;;24.93;;
10212;SDS011;5150;51.400;6.692;2022-12-05T11:58:09;27.50;;;24.53;;
10212;SDS011;5150;51.400;6.692;2022-12-05T12:01:50;30.63;;;23.27;;
10212;SDS011;5150;51.400;6.692;2022-12-05T12:05:28;26.87;;;23.97;;
10212;SDS011;5150;51.400;6.692;2022-12-05T12:09:13;28.47;;;23.53;;
10212;SDS011;5150;51.400;6.692;2022-12-05T12:12:55;27.30;;;21.97;;
10212;SDS011;5150;51.400;6.692;2022-12-05T12:16:36;25.00;;;22.30;;
10212;SDS011;5150;51.400;6.692;2022-12-05T12:20:14;26.80;;;22.20;;
10212;SDS011;5150;51.400;6.692;2022-12-05T12:24:01;22.10;;;19.80;;
10212;SDS011;5150;51.400;6.692;2022-12-05T12:27:36;24.07;;;20.93;;
10212;SDS011;5150;51.400;6.692;2022-12-05T12:31:16;37.30;;;21.33;;
10212;SDS011;5150;51.400;6.692;2022-12-05T12:34:53;35.77;;;25.03;;
10212;SDS011;5150;51.400;6.692;2022-12-05T12:42:25;29.03;;;23.93;;
10212;SDS011;5150;51.400;6.692;2022-12-05T12:46:01;27.30;;;22.23;;
10212;SDS011;5150;51.400;6.692;2022-12-05T12:49:54;21.20;;;19.10;;
10212;SDS011;5150;51.400;6.692;2022-12-05T12:57:28;21.93;;;19.00;;
10212;SDS011;5150;51.400;6.692;2022-12-05T13:01:07;23.23;;;19.37;;
10212;SDS011;5150;51.400;6.692;2022-12-05T13:04:41;22.10;;;19.73;;
10212;SDS011;5150;51.400;6.692;2022-12-05T13:08:15;22.03;;;19.83;;
10212;SDS011;5150;51.400;6.692;2022-12-05T13:11:47;22.37;;;19.97;;
10212;SDS011;5150;51.400;6.692;2022-12-05T13:15:16;23.17;;;20.07;;
10212;SDS011;5150;51.400;6.692;2022-12-05T13:18:54;24.33;;;21.83;;
10212;SDS011;5150;51.400;6.692;2022-12-05T13:22:22;21.63;;;19.47;;
10212;SDS011;5150;51.400;6.692;2022-12-05T13:26:11;19.87;;;17.83;;
10212;SDS011;5150;51.400;6.692;2022-12-05T13:29:42;19.77;;;17.67;;
10212;SDS011;5150;51.400;6.692;2022-12-05T13:33:18;20.10;;;18.00;;
10212;SDS011;5150;51.400;6.692;2022-12-05T13:36:47;22.07;;;18.87;;
10212;SDS011;5150;51.400;6.692;2022-12-05T13:40:28;20.93;;;18.50;;
10212;SDS011;5150;51.400;6.692;2022-12-05T13:44:12;20.10;;;18.20;;
10212;SDS011;5150;51.400;6.692;2022-12-05T13:47:39;21.30;;;18.93;;
10212;SDS011;5150;51.400;6.692;2022-12-05T13:51:19;22.40;;;19.93;;
10212;SDS011;5150;51.400;6.692;2022-12-05T13:54:47;32.87;;;26.33;;
10212;SDS011;5150;51.400;6.692;2022-12-05T14:02:09;22.50;;;20.20;;
10212;SDS011;5150;51.400;6.692;2022-12-05T14:06:11;20.43;;;18.43;;
10212;SDS011;5150;51.400;6.692;2022-12-05T14:10:15;19.33;;;17.23;;
10212;SDS011;5150;51.400;6.692;2022-12-05T14:13:43;20.40;;;18.30;;
10212;SDS011;5150;51.400;6.692;2022-12-05T14:17:06;20.37;;;18.30;;
10212;SDS011;5150;51.400;6.692;2022-12-05T14:20:31;20.03;;;17.87;;
10212;SDS011;5150;51.400;6.692;2022-12-05T14:24:09;24.50;;;22.10;;
10212;SDS011;5150;51.400;6.692;2022-12-05T14:27:47;21.93;;;19.17;;
10212;SDS011;5150;51.400;6.692;2022-12-05T14:31:20;21.60;;;17.93;;
10212;SDS011;5150;51.400;6.692;2022-12-05T14:34:55;23.90;;;21.27;;
10212;SDS011;5150;51.400;6.692;2022-12-05T14:38:25;20.47;;;18.30;;
10212;SDS011;5150;51.400;6.692;2022-12-05T14:41:57;26.00;;;21.30;;
10212;SDS011;5150;51.400;6.692;2022-12-05T14:45:32;25.30;;;22.57;;
10212;SDS011;5150;51.400;6.692;2022-12-05T14:48:57;23.73;;;20.27;;
10212;SDS011;5150;51.400;6.692;2022-12-05T14:52:40;23.10;;;20.70;;
10212;SDS011;5150;51.400;6.692;2022-12-05T14:56:06;24.73;;;22.00;;
10212;SDS011;5150;51.400;6.692;2022-12-05T14:59:37;27.17;;;23.00;;
10212;SDS011;5150;51.400;6.692;2022-12-05T15:03:09;26.40;;;23.13;;
10212;SDS011;5150;51.400;6.692;2022-12-05T15:06:48;30.03;;;24.60;;
10212;SDS011;5150;51.400;6.692;2022-12-05T15:10:14;31.67;;;26.73;;
10212;SDS011;5150;51.400;6.692;2022-12-05T15:13:41;28.37;;;22.77;;
10212;SDS011;5150;51.400;6.692;2022-12-05T15:17:04;29.03;;;24.63;;
10212;SDS011;5150;51.400;6.692;2022-12-05T15:20:36;30.13;;;26.07;;
10212;SDS011;5150;51.400;6.692;2022-12-05T15:24:05;33.47;;;25.20;;
10212;SDS011;5150;51.400;6.692;2022-12-05T15:27:37;29.37;;;25.23;;
10212;SDS011;5150;51.400;6.692;2022-12-05T15:31:00;30.57;;;25.03;;
10212;SDS011;5150;51.400;6.692;2022-12-05T15:34:24;36.10;;;27.23;;
10212;SDS011;5150;51.400;6.692;2022-12-05T15:37:52;33.87;;;24.43;;
10212;SDS011;5150;51.400;6.692;2022-12-05T15:41:25;27.70;;;24.43;;
10212;SDS011;5150;51.400;6.692;2022-12-05T15:44:49;36.87;;;26.60;;
10212;SDS011;5150;51.400;6.692;2022-12-05T15:48:12;32.60;;;25.70;;
10212;SDS011;5150;51.400;6.692;2022-12-05T15:51:43;32.20;;;28.30;;
10212;SDS011;5150;51.400;6.692;2022-12-05T15:55:11;36.27;;;29.40;;
10212;SDS011;5150;51.400;6.692;2022-12-05T15:58:38;41.23;;;33.07;;
10212;SDS011;5150;51.400;6.692;2022-12-05T16:02:09;37.17;;;30.33;;
10212;SDS011;5150;51.400;6.692;2022-12-05T16:05:38;41.30;;;32.27;;
10212;SDS011;5150;51.400;6.692;2022-12-05T16:09:04;47.07;;;34.60;;
10212;SDS011;5150;51.400;6.692;2022-12-05T16:12:33;39.40;;;31.67;;
10212;SDS011;5150;51.400;6.692;2022-12-05T16:16:00;42.97;;;32.13;;
10212;SDS011;5150;51.400;6.692;2022-12-05T16:19:26;39.87;;;30.80;;
10212;SDS011;5150;51.400;6.692;2022-12-05T16:22:52;46.30;;;32.83;;
10212;SDS011;5150;51.400;6.692;2022-12-05T16:26:17;39.77;;;31.57;;
10212;SDS011;5150;51.400;6.692;2022-12-05T16:29:43;44.07;;;32.20;;
10212;SDS011;5150;51.400;6.692;2022-12-05T16:33:11;40.40;;;30.13;;
10212;SDS011;5150;51.400;6.692;2022-12-05T16:36:44;45.40;;;32.93;;
10212;SDS011;5150;51.400;6.692;2022-12-05T16:40:19;40.03;;;29.70;;
10212;SDS011;5150;51.400;6.692;2022-12-05T16:43:43;33.70;;;26.47;;
10212;SDS011;5150;51.400;6.692;2022-12-05T16:47:09;39.67;;;28.30;;
10212;SDS011;5150;51.400;6.692;2022-12-05T16:50:44;34.20;;;27.97;;
10212;SDS011;5150;51.400;6.692;2022-12-05T16:54:07;33.90;;;27.93;;
10212;SDS011;5150;51.400;6.692;2022-12-05T16:57:30;36.00;;;28.27;;
10212;SDS011;5150;51.400;6.692;2022-12-05T17:00:57;36.30;;;28.43;;
10212;SDS011;5150;51.400;6.692;2022-12-05T17:04:23;41.50;;;29.83;;
10212;SDS011;5150;51.400;6.692;2022-12-05T17:07:47;41.73;;;31.87;;
10212;SDS011;5150;51.400;6.692;2022-12-05T17:11:11;38.10;;;29.20;;
10212;SDS011;5150;51.400;6.692;2022-12-05T17:14:38;34.60;;;26.90;;
10212;SDS011;5150;51.400;6.692;2022-12-05T17:18:01;38.43;;;29.50;;
10212;SDS011;5150;51.400;6.692;2022-12-05T17:21:36;40.00;;;28.90;;
10212;SDS011;5150;51.400;6.692;2022-12-05T17:25:02;40.37;;;29.33;;
10212;SDS011;5150;51.400;6.692;2022-12-05T17:28:29;40.17;;;28.57;;
10212;SDS011;5150;51.400;6.692;2022-12-05T17:31:52;37.23;;;28.97;;
10212;SDS011;5150;51.400;6.692;2022-12-05T17:35:16;35.90;;;27.27;;
10212;SDS011;5150;51.400;6.692;2022-12-05T17:38:42;42.30;;;31.13;;
10212;SDS011;5150;51.400;6.692;2022-12-05T17:42:06;41.47;;;29.43;;
10212;SDS011;5150;51.400;6.692;2022-12-05T17:45:30;36.93;;;28.30;;
10212;SDS011;5150;51.400;6.692;2022-12-05T17:48:53;38.53;;;27.93;;
10212;SDS011;5150;51.400;6.692;2022-12-05T17:52:19;33.67;;;26.67;;
10212;SDS011;5150;51.400;6.692;2022-12-05T17:55:44;36.47;;;26.47;;
10212;SDS011;5150;51.400;6.692;2022-12-05T17:59:11;33.77;;;27.83;;
10212;SDS011;5150;51.400;6.692;2022-12-05T18:02:36;39.10;;;29.13;;
10212;SDS011;5150;51.400;6.692;2022-12-05T18:06:02;38.07;;;28.20;;
10212;SDS011;5150;51.400;6.692;2022-12-05T18:09:26;43.83;;;29.13;;
10212;SDS011;5150;51.400;6.692;2022-12-05T18:12:51;40.47;;;29.73;;
10212;SDS011;5150;51.400;6.692;2022-12-05T18:16:14;46.83;;;32.30;;
10212;SDS011;5150;51.400;6.692;2022-12-05T18:19:38;37.40;;;28.40;;
10212;SDS011;5150;51.400;6.692;2022-12-05T18:23:02;38.37;;;29.40;;
10212;SDS011;5150;51.400;6.692;2022-12-05T18:26:25;43.60;;;30.70;;
10212;SDS011;5150;51.400;6.692;2022-12-05T18:29:50;41.37;;;31.73;;
10212;SDS011;5150;51.400;6.692;2022-12-05T18:33:13;46.33;;;32.73;;
10212;SDS011;5150;51.400;6.692;2022-12-05T18:36:37;47.30;;;32.80;;
10212;SDS011;5150;51.400;6.692;2022-12-05T18:40:01;44.53;;;32.17;;
10212;SDS011;5150;51.400;6.692;2022-12-05T18:43:24;44.87;;;32.30;;
10212;SDS011;5150;51.400;6.692;2022-12-05T18:47:21;47.17;;;30.53;;
10212;SDS011;5150;51.400;6.692;2022-12-05T18:50:52;47.37;;;35.00;;
10212;SDS011;5150;51.400;6.692;2022-12-05T18:54:53;48.40;;;33.37;;
10212;SDS011;5150;51.400;6.692;2022-12-05T18:58:37;44.47;;;34.10;;
10212;SDS011;5150;51.400;6.692;2022-12-05T19:02:00;77.83;;;37.07;;
10212;SDS011;5150;51.400;6.692;2022-12-05T19:05:28;50.40;;;35.30;;
10212;SDS011;5150;51.400;6.692;2022-12-05T19:08:55;50.60;;;35.07;;
10212;SDS011;5150;51.400;6.692;2022-12-05T19:12:19;50.50;;;34.40;;
10212;SDS011;5150;51.400;6.692;2022-12-05T19:15:42;48.47;;;33.50;;
10212;SDS011;5150;51.400;6.692;2022-12-05T19:19:06;52.97;;;35.93;;
10212;SDS011;5150;51.400;6.692;2022-12-05T19:22:34;61.17;;;37.33;;
10212;SDS011;5150;51.400;6.692;2022-12-05T19:25:58;51.80;;;33.97;;
10212;SDS011;5150;51.400;6.692;2022-12-05T19:29:22;50.23;;;35.40;;
10212;SDS011;5150;51.400;6.692;2022-12-05T19:33:04;48.50;;;34.27;;
10212;SDS011;5150;51.400;6.692;2022-12-05T19:36:28;47.03;;;33.43;;
10212;SDS011;5150;51.400;6.692;2022-12-05T19:39:54;50.90;;;32.50;;
10212;SDS011;5150;51.400;6.692;2022-12-05T19:43:18;47.03;;;33.37;;
10212;SDS011;5150;51.400;6.692;2022-12-05T19:46:41;47.90;;;31.67;;
10212;SDS011;5150;51.400;6.692;2022-12-05T19:50:05;48.30;;;33.10;;
10212;SDS011;5150;51.400;6.692;2022-12-05T19:53:29;44.57;;;31.93;;
10212;SDS011;5150;51.400;6.692;2022-12-05T19:56:55;45.80;;;30.13;;
10212;SDS011;5150;51.400;6.692;2022-12-05T20:00:20;46.20;;;30.47;;
10212;SDS011;5150;51.400;6.692;2022-12-05T20:03:45;44.97;;;31.33;;
10212;SDS011;5150;51.400;6.692;2022-12-05T20:07:10;46.87;;;33.20;;
10212;SDS011;5150;51.400;6.692;2022-12-05T20:10:33;47.57;;;33.17;;
10212;SDS011;5150;51.400;6.692;2022-12-05T20:13:59;51.93;;;33.13;;
10212;SDS011;5150;51.400;6.692;2022-12-05T20:17:23;47.13;;;32.70;;
10212;SDS011;5150;51.400;6.692;2022-12-05T20:20:54;46.63;;;32.30;;
10212;SDS011;5150;51.400;6.692;2022-12-05T20:24:18;48.60;;;32.47;;
10212;SDS011;5150;51.400;6.692;2022-12-05T20:27:41;45.40;;;30.80;;
10212;SDS011;5150;51.400;6.692;2022-12-05T20:31:06;46.80;;;31.23;;
10212;SDS011;5150;51.400;6.692;2022-12-05T20:34:31;51.13;;;32.57;;
10212;SDS011;5150;51.400;6.692;2022-12-05T20:37:54;49.77;;;32.60;;
10212;SDS011;5150;51.400;6.692;2022-12-05T20:41:17;48.07;;;32.47;;
10212;SDS011;5150;51.400;6.692;2022-12-05T20:44:40;48.90;;;33.17;;
10212;SDS011;5150;51.400;6.692;2022-12-05T20:48:08;54.93;;;33.63;;
10212;SDS011;5150;51.400;6.692;2022-12-05T20:51:31;50.77;;;32.13;;
10212;SDS011;5150;51.400;6.692;2022-12-05T20:54:55;52.80;;;33.40;;